createdAt,value
2022-09-29T00:03:57.237Z,79.50
2022-09-29T00:08:59.592Z,79.40
2022-09-29T00:14:03.458Z,79.60
2022-09-29T00:19:06.253Z,79.50
2022-09-29T00:24:08.901Z,79.30
2022-09-29T00:29:13.170Z,79.10
2022-09-29T00:34:15.671Z,80.00
2022-09-29T00:39:17.919Z,79.50
2022-09-29T00:44:59.379Z,80.00
2022-09-29T00:50:09.760Z,81.10
2022-09-29T00:55:17.709Z,80.50
2022-09-29T01:00:21.852Z,80.10
2022-09-29T01:05:27.901Z,79.90
2022-09-29T01:10:30.372Z,80.00
2022-09-29T01:15:34.745Z,80.20
2022-09-29T01:20:48.987Z,80.20
2022-09-29T01:26:40.549Z,79.80
2022-09-29T01:31:56.850Z,80.50
2022-09-29T01:37:11.299Z,79.90
2022-09-29T01:42:18.836Z,79.90
2022-09-29T01:47:27.901Z,80.10
2022-09-29T01:52:33.879Z,80.10
2022-09-29T01:57:40.702Z,79.70
2022-09-29T02:02:49.651Z,79.60
2022-09-29T02:07:54.423Z,79.90
2022-09-29T02:12:59.926Z,80.10
2022-09-29T02:18:12.009Z,80.50
2022-09-29T02:23:14.619Z,81.10
2022-09-29T02:28:17.960Z,81.20
2022-09-29T02:33:25.308Z,81.30
2022-09-29T02:38:36.940Z,81.50
2022-09-29T02:44:14.749Z,81.30
2022-09-29T02:49:35.119Z,81.70
2022-09-29T02:54:53.770Z,81.60
2022-09-29T03:00:02.303Z,81.80
2022-09-29T03:05:08.724Z,81.70
2022-09-29T03:10:13.436Z,81.80
2022-09-29T03:15:16.280Z,81.60
2022-09-29T03:20:20.601Z,81.70
2022-09-29T03:25:23.053Z,81.60
2022-09-29T03:30:25.950Z,81.60
2022-09-29T03:35:29.979Z,81.70
2022-09-29T03:40:32.566Z,81.50
2022-09-29T03:45:35.204Z,81.30
2022-09-29T03:50:39.376Z,81.50
2022-09-29T03:55:46.514Z,81.70
2022-09-29T04:00:49.547Z,81.90
2022-09-29T04:05:53.698Z,82.10
2022-09-29T04:10:56.408Z,82.30
2022-09-29T04:15:59.901Z,82.30
2022-09-29T04:21:08.777Z,82.10
2022-09-29T04:26:11.659Z,82.20
2022-09-29T04:31:14.227Z,82.00
2022-09-29T04:36:18.419Z,82.20
2022-09-29T04:41:20.772Z,82.20
2022-09-29T04:46:23.285Z,82.20
2022-09-29T04:51:27.560Z,82.20
2022-09-29T05:02:34.320Z,82.60
2022-09-29T05:07:39.464Z,82.20
2022-09-29T05:12:47.268Z,82.40
2022-09-29T05:17:50.270Z,82.20
2022-09-29T05:22:54.550Z,82.40
2022-09-29T05:27:58.061Z,82.50
2022-09-29T05:33:00.502Z,83.40
2022-09-29T05:38:04.383Z,82.40
2022-09-29T05:43:07.004Z,82.60
2022-09-29T05:48:09.453Z,82.80
2022-09-29T05:53:13.354Z,82.80
2022-09-29T05:58:15.700Z,82.80
2022-09-29T06:03:18.063Z,82.80
2022-09-29T06:08:22.887Z,82.60
2022-09-29T06:13:25.776Z,82.70
2022-09-29T06:18:28.569Z,82.90
2022-09-29T06:23:33.419Z,83.10
2022-09-29T06:28:37.082Z,83.10
2022-09-29T06:33:39.831Z,82.80
2022-09-29T06:38:43.974Z,82.80
2022-09-29T06:43:46.492Z,82.70
2022-09-29T06:48:48.931Z,82.80
2022-09-29T06:54:01.580Z,83.10
2022-09-29T06:59:08.443Z,83.40
2022-09-29T07:04:11.843Z,83.70
2022-09-29T07:09:16.193Z,82.80
2022-09-29T07:14:20.952Z,83.00
2022-09-29T07:19:23.503Z,83.20
2022-09-29T07:24:28.266Z,83.30
2022-09-29T07:29:30.663Z,83.40
2022-09-29T07:34:33.247Z,83.20
2022-09-29T07:39:37.325Z,83.30
2022-09-29T07:44:40.044Z,83.40
2022-09-29T07:49:42.776Z,83.40
2022-09-29T07:54:46.852Z,83.10
2022-09-29T07:59:53.219Z,83.20
2022-09-29T08:05:01.384Z,83.00
2022-09-29T08:10:16.925Z,83.20
2022-09-29T08:15:20.628Z,83.40
2022-09-29T08:20:24.168Z,83.20
2022-09-29T08:25:28.103Z,83.30
2022-09-29T08:30:30.464Z,83.90
2022-09-29T08:35:32.722Z,84.20
2022-09-29T08:40:36.810Z,84.00
2022-09-29T08:45:57.780Z,84.00
2022-09-29T08:51:06.045Z,83.60
2022-09-29T08:56:16.143Z,83.10
2022-09-29T09:01:25.277Z,83.30
2022-09-29T09:06:36.778Z,83.40
2022-09-29T09:12:07.149Z,82.30
2022-09-29T09:17:20.784Z,80.80
2022-09-29T09:22:24.984Z,80.70
2022-09-29T09:27:36.223Z,80.40
2022-09-29T09:32:45.894Z,80.20
2022-09-29T09:37:50.777Z,80.40
2022-09-29T09:43:03.684Z,80.70
2022-09-29T09:48:12.312Z,81.00
2022-09-29T09:53:19.750Z,81.60
2022-09-29T09:59:01.376Z,81.70
2022-09-29T10:04:04.271Z,80.00
2022-09-29T10:09:06.616Z,80.90
2022-09-29T10:14:15.805Z,80.00
2022-09-29T10:19:22.085Z,76.40
2022-09-29T10:24:28.428Z,74.60
2022-09-29T10:29:38.566Z,73.20
2022-09-29T10:34:43.225Z,73.10
2022-09-29T10:39:47.485Z,72.80
2022-09-29T10:45:02.883Z,71.90
2022-09-29T10:50:14.047Z,71.30
2022-09-29T10:55:19.040Z,70.70
2022-09-29T11:00:29.864Z,71.00
2022-09-29T11:05:33.038Z,71.10
2022-09-29T11:10:38.086Z,71.60
2022-09-29T11:15:42.169Z,71.20
2022-09-29T11:20:46.041Z,71.70
2022-09-29T11:26:17.560Z,71.70
2022-09-29T11:31:36.197Z,70.50
2022-09-29T11:36:46.344Z,70.30
2022-09-29T11:42:05.644Z,70.50
2022-09-29T11:47:25.895Z,70.10
2022-09-29T11:52:58.378Z,70.10
2022-09-29T11:58:14.292Z,71.10
2022-09-29T12:03:31.248Z,70.90
2022-09-29T12:08:49.866Z,70.30
2022-09-29T12:14:01.103Z,69.60
2022-09-29T12:19:12.196Z,69.80
2022-09-29T12:24:19.370Z,69.30
2022-09-29T12:29:33.417Z,69.40
2022-09-29T12:34:44.502Z,69.10
2022-09-29T12:39:56.594Z,69.30
2022-09-29T12:45:10.685Z,70.00
2022-09-29T12:50:20.433Z,70.00
2022-09-29T12:55:31.211Z,69.80
2022-09-29T13:00:37.215Z,69.90
2022-09-29T13:06:05.191Z,69.80
2022-09-29T13:11:44.546Z,69.20
2022-09-29T13:17:01.573Z,69.00
2022-09-29T13:22:30.184Z,69.30
2022-09-29T13:27:36.562Z,69.80
2022-09-29T13:32:41.670Z,70.60
2022-09-29T13:37:49.835Z,71.20
2022-09-29T13:42:53.699Z,71.90
2022-09-29T13:47:58.285Z,72.60
2022-09-29T13:53:30.238Z,73.20
2022-09-29T13:58:36.887Z,73.00
2022-09-29T14:03:41.171Z,73.30
2022-09-29T14:08:49.443Z,73.00
2022-09-29T14:14:00.028Z,72.60
2022-09-29T14:19:07.846Z,71.80
2022-09-29T14:24:44.408Z,71.60
2022-09-29T14:29:51.999Z,70.80
2022-09-29T14:34:55.242Z,70.70
2022-09-29T14:40:02.143Z,70.80
2022-09-29T14:45:08.565Z,70.70
2022-09-29T14:50:26.246Z,70.70
2022-09-29T14:55:38.072Z,70.90
2022-09-29T15:01:04.988Z,71.10
2022-09-29T15:06:13.073Z,70.80
2022-09-29T15:11:37.879Z,71.20
2022-09-29T15:16:50.236Z,71.10
2022-09-29T15:22:05.528Z,71.20
2022-09-29T15:27:14.037Z,71.60
2022-09-29T15:32:24.885Z,71.50
2022-09-29T15:37:27.593Z,71.40
2022-09-29T15:42:29.997Z,71.60
2022-09-29T15:47:40.095Z,71.90
2022-09-29T15:52:42.612Z,72.20
2022-09-29T15:57:47.382Z,72.30
2022-09-29T16:02:59.461Z,72.40
2022-09-29T16:08:04.509Z,72.90
2022-09-29T16:13:16.585Z,73.10
2022-09-29T16:18:24.533Z,73.60
2022-09-29T16:23:29.406Z,74.10
2022-09-29T16:28:31.927Z,74.40
2022-09-29T16:33:38.413Z,74.60
2022-09-29T16:38:45.607Z,74.80
2022-09-29T16:43:48.155Z,74.80
2022-09-29T16:48:52.102Z,74.80
2022-09-29T16:53:59.423Z,74.60
2022-09-29T16:59:09.786Z,75.80
2022-09-29T17:04:13.767Z,75.60
2022-09-29T17:09:20.385Z,75.60
2022-09-29T17:14:22.948Z,76.10
2022-09-29T17:19:26.801Z,76.30
2022-09-29T17:24:29.447Z,76.60
2022-09-29T17:29:32.761Z,76.70
2022-09-29T17:34:36.700Z,76.90
2022-09-29T17:39:39.274Z,77.00
2022-09-29T17:44:41.833Z,77.00
2022-09-29T17:49:46.665Z,77.30
2022-09-29T17:54:49.154Z,77.80
2022-09-29T17:59:51.976Z,77.90
2022-09-29T18:04:56.014Z,78.10
2022-09-29T18:09:58.994Z,78.30
2022-09-29T18:15:01.485Z,78.30
2022-09-29T18:20:13.565Z,78.40
2022-09-29T18:25:18.377Z,78.70
2022-09-29T18:30:22.682Z,78.40
2022-09-29T18:35:29.614Z,78.40
2022-09-29T18:40:32.488Z,78.50
2022-09-29T18:45:37.881Z,78.30
2022-09-29T18:50:45.191Z,78.30
2022-09-29T18:55:48.475Z,78.50
2022-09-29T19:00:53.922Z,78.60
2022-09-29T19:05:58.183Z,78.40
2022-09-29T19:11:01.462Z,78.80
2022-09-29T19:16:04.117Z,78.90
2022-09-29T19:21:11.987Z,78.90
2022-09-29T19:26:22.154Z,79.30
2022-09-29T19:31:26.578Z,79.30
2022-09-29T19:36:33.154Z,78.90
2022-09-29T19:41:38.757Z,79.00
2022-09-29T19:46:41.829Z,78.70
2022-09-29T19:51:47.618Z,78.70
2022-09-29T19:56:52.673Z,79.00
2022-09-29T20:01:56.411Z,79.00
2022-09-29T20:07:00.770Z,79.10
2022-09-29T20:12:03.397Z,79.10
2022-09-29T20:17:05.957Z,79.00
2022-09-29T20:22:09.931Z,79.10
2022-09-29T20:27:12.438Z,79.00
2022-09-29T20:32:15.270Z,78.90
2022-09-29T20:37:19.308Z,79.00
2022-09-29T20:42:22.642Z,79.10
2022-09-29T20:47:25.304Z,79.00
2022-09-29T20:52:29.015Z,79.10
2022-09-29T20:57:32.413Z,79.40
2022-09-29T21:02:34.910Z,79.70
2022-09-29T21:07:38.744Z,79.80
2022-09-29T21:12:41.013Z,80.10
2022-09-29T21:17:43.459Z,80.10
2022-09-29T21:22:47.328Z,80.00
2022-09-29T21:27:50.725Z,80.10
2022-09-29T21:32:53.032Z,79.60
2022-09-29T21:37:57.072Z,79.70
2022-09-29T21:42:59.502Z,80.10
2022-09-29T21:48:02.038Z,80.00
2022-09-29T21:53:06.727Z,80.60
2022-09-29T21:58:09.384Z,80.90
2022-09-29T22:03:11.692Z,81.10
2022-09-29T22:08:15.783Z,81.40
2022-09-29T22:13:18.730Z,81.70
2022-09-29T22:18:21.607Z,81.70
2022-09-29T22:23:27.845Z,81.70
2022-09-29T22:28:31.614Z,82.70
2022-09-29T22:33:34.179Z,81.90
2022-09-29T22:38:39.303Z,81.80
2022-09-29T22:43:42.209Z,81.90
2022-09-29T22:48:44.628Z,81.70
2022-09-29T22:53:49.110Z,81.70
2022-09-29T22:58:51.670Z,81.80
2022-09-29T23:03:54.427Z,81.70
2022-09-29T23:08:59.066Z,81.80
2022-09-29T23:14:01.429Z,81.80
2022-09-29T23:19:04.220Z,81.70
2022-09-29T23:24:08.928Z,81.80
2022-09-29T23:29:11.999Z,81.70
2022-09-29T23:34:14.507Z,81.50
2022-09-29T23:39:18.608Z,81.70
2022-09-29T23:44:23.272Z,81.90
2022-09-29T23:49:27.617Z,81.70
2022-09-29T23:54:31.626Z,81.50
2022-09-29T23:59:34.428Z,81.70
